createdAt,value
2019-03-23T00:01:25.744Z,17.07
2019-03-23T00:03:59.068Z,15.88
2019-03-23T00:06:32.861Z,16.05
2019-03-23T00:09:06.458Z,16.42
2019-03-23T00:11:39.802Z,14.65
2019-03-23T00:14:13.166Z,14.93
2019-03-23T00:16:46.804Z,14.73
2019-03-23T00:19:20.121Z,15.30
2019-03-23T00:21:53.483Z,15.28
2019-03-23T00:24:27.021Z,13.60
2019-03-23T00:27:01.587Z,13.90
2019-03-23T00:29:34.901Z,14.25
2019-03-23T00:32:08.252Z,13.83
2019-03-23T00:34:41.636Z,13.58
2019-03-23T00:37:14.946Z,14.70
2019-03-23T00:39:49.377Z,13.83
2019-03-23T00:42:22.883Z,14.47
2019-03-23T00:44:56.193Z,12.95
2019-03-23T00:47:29.665Z,13.20
2019-03-23T00:50:04.385Z,14.58
2019-03-23T00:52:37.880Z,12.65
2019-03-23T00:55:11.239Z,13.38
2019-03-23T00:57:44.563Z,12.82
2019-03-23T01:00:17.981Z,12.60
2019-03-23T01:02:51.293Z,12.07
2019-03-23T01:05:24.638Z,13.20
2019-03-23T01:07:58.020Z,14.63
2019-03-23T01:10:31.384Z,14.15
2019-03-23T01:13:04.890Z,13.90
2019-03-23T01:15:39.950Z,13.40
2019-03-23T01:18:13.428Z,13.10
2019-03-23T01:20:49.856Z,13.28
2019-03-23T01:23:21.797Z,14.20
2019-03-23T01:25:55.183Z,12.95
2019-03-23T01:28:29.009Z,13.78
2019-03-23T01:31:02.434Z,13.93
2019-03-23T01:33:35.752Z,13.43
2019-03-23T01:36:10.661Z,13.75
2019-03-23T01:38:44.135Z,13.50
2019-03-23T01:41:17.488Z,14.25
2019-03-23T01:43:50.976Z,14.15
2019-03-23T01:46:24.411Z,13.45
2019-03-23T01:48:57.595Z,13.98
2019-03-23T01:51:30.937Z,15.00
2019-03-23T01:54:04.260Z,13.98
2019-03-23T01:56:37.599Z,14.35
2019-03-23T01:59:10.758Z,14.45
2019-03-23T02:01:44.510Z,14.33
2019-03-23T02:04:17.832Z,14.98
2019-03-23T02:06:52.394Z,13.78
2019-03-23T02:09:25.725Z,14.07
2019-03-23T02:11:59.071Z,13.95
2019-03-23T02:14:32.406Z,14.80
2019-03-23T02:17:05.735Z,14.63
2019-03-23T02:19:39.091Z,14.40
2019-03-23T02:22:12.410Z,15.65
2019-03-23T02:24:45.938Z,14.25
2019-03-23T02:27:19.331Z,14.53
2019-03-23T02:29:52.676Z,14.38
2019-03-23T02:32:26.080Z,14.68
2019-03-23T02:34:59.583Z,14.60
2019-03-23T02:37:33.695Z,14.80
2019-03-23T02:40:09.158Z,13.18
2019-03-23T02:42:42.484Z,14.05
2019-03-23T02:45:15.860Z,14.60
2019-03-23T02:47:49.659Z,14.38
2019-03-23T02:50:23.253Z,15.00
2019-03-23T02:52:56.609Z,13.75
2019-03-23T02:55:30.072Z,15.40
2019-03-23T02:58:03.639Z,15.43
2019-03-23T03:00:36.949Z,14.78
2019-03-23T03:03:10.319Z,15.68
2019-03-23T03:05:43.636Z,14.73
2019-03-23T03:08:17.043Z,14.35
2019-03-23T03:10:50.385Z,16.32
2019-03-23T03:13:23.727Z,15.93
2019-03-23T03:15:57.079Z,15.85
2019-03-23T03:18:30.409Z,15.55
2019-03-23T03:21:03.936Z,15.28
2019-03-23T03:23:37.379Z,15.30
2019-03-23T03:26:10.897Z,14.93
2019-03-23T03:28:44.409Z,15.18
2019-03-23T03:31:17.702Z,14.87
2019-03-23T03:33:52.533Z,15.58
2019-03-23T03:36:26.137Z,14.83
2019-03-23T03:38:59.504Z,15.58
2019-03-23T03:41:32.819Z,15.93
2019-03-23T03:44:06.172Z,16.23
2019-03-23T03:46:39.519Z,16.82
2019-03-23T03:49:15.875Z,16.32
2019-03-23T03:51:49.398Z,16.55
2019-03-23T03:54:22.710Z,17.55
2019-03-23T03:56:56.271Z,18.55
2019-03-23T03:59:29.584Z,16.80
2019-03-23T04:02:02.993Z,18.48
2019-03-23T04:04:36.411Z,17.80
2019-03-23T04:07:09.879Z,17.87
2019-03-23T04:09:43.242Z,18.00
2019-03-23T04:12:16.587Z,17.85
2019-03-23T04:14:50.271Z,17.95
2019-03-23T04:17:23.662Z,18.35
2019-03-23T04:19:56.972Z,18.65
2019-03-23T04:22:30.350Z,17.50
2019-03-23T04:25:05.543Z,17.27
2019-03-23T04:27:39.105Z,18.40
2019-03-23T04:30:13.826Z,17.60
2019-03-23T04:32:47.175Z,18.42
2019-03-23T04:35:20.545Z,19.07
2019-03-23T04:37:54.031Z,16.85
2019-03-23T04:40:27.357Z,17.30
2019-03-23T04:43:01.398Z,16.15
2019-03-23T04:45:38.238Z,15.78
2019-03-23T04:48:11.588Z,16.10
2019-03-23T04:50:44.894Z,16.90
2019-03-23T04:53:18.303Z,16.95
2019-03-23T04:55:51.628Z,14.87
2019-03-23T04:58:25.118Z,16.32
2019-03-23T05:01:00.092Z,16.00
2019-03-23T05:03:35.201Z,13.45
2019-03-23T05:06:08.348Z,13.65
2019-03-23T05:08:41.680Z,13.03
2019-03-23T05:11:15.001Z,10.72
2019-03-23T05:13:48.975Z,10.75
2019-03-23T05:16:22.309Z,11.20
2019-03-23T05:18:57.253Z,11.43
2019-03-23T05:21:30.375Z,8.58
2019-03-23T05:24:03.751Z,8.90
2019-03-23T05:26:37.120Z,9.20
2019-03-23T05:29:11.557Z,9.20
2019-03-23T05:31:45.939Z,10.23
2019-03-23T05:34:19.346Z,9.78
2019-03-23T05:36:52.686Z,10.10
2019-03-23T05:39:26.146Z,9.95
2019-03-23T05:41:59.566Z,10.32
2019-03-23T05:44:32.936Z,10.43
2019-03-23T05:47:06.440Z,11.73
2019-03-23T05:49:39.790Z,10.30
2019-03-23T05:52:13.162Z,10.20
2019-03-23T05:54:46.532Z,12.43
2019-03-23T05:57:20.014Z,11.35
2019-03-23T05:59:53.393Z,11.83
2019-03-23T06:02:26.724Z,11.60
2019-03-23T06:05:00.068Z,11.63
2019-03-23T06:07:33.636Z,12.47
2019-03-23T06:10:07.210Z,12.37
2019-03-23T06:12:40.610Z,11.38
2019-03-23T06:15:13.966Z,13.20
2019-03-23T06:17:47.501Z,13.05
2019-03-23T06:20:22.469Z,12.70
2019-03-23T06:22:55.760Z,13.32
2019-03-23T06:25:29.201Z,13.50
2019-03-23T06:28:02.646Z,13.32
2019-03-23T06:30:36.082Z,12.73
2019-03-23T06:33:10.409Z,13.35
2019-03-23T06:35:43.817Z,12.47
2019-03-23T06:38:17.173Z,13.98
2019-03-23T06:40:50.511Z,13.58
2019-03-23T06:43:24.105Z,14.50
2019-03-23T06:45:57.547Z,14.65
2019-03-23T06:48:31.566Z,15.45
2019-03-23T06:51:05.043Z,14.78
2019-03-23T06:53:38.348Z,14.87
2019-03-23T06:56:11.696Z,13.78
2019-03-23T06:58:45.012Z,14.95
2019-03-23T07:01:18.453Z,14.10
2019-03-23T07:03:51.949Z,13.43
2019-03-23T07:06:25.295Z,14.75
2019-03-23T07:08:58.626Z,15.53
2019-03-23T07:11:31.991Z,14.50
2019-03-23T07:14:05.136Z,15.88
2019-03-23T07:16:38.554Z,14.93
2019-03-23T07:19:11.964Z,16.10
2019-03-23T07:21:45.664Z,14.33
2019-03-23T07:24:19.335Z,15.15
2019-03-23T07:26:52.801Z,15.05
2019-03-23T07:29:26.137Z,15.08
2019-03-23T07:32:05.763Z,15.43
2019-03-23T07:34:34.589Z,14.40
2019-03-23T07:37:08.448Z,14.45
2019-03-23T07:39:41.899Z,13.35
2019-03-23T07:42:15.571Z,13.95
2019-03-23T07:44:48.797Z,14.80
2019-03-23T07:47:22.142Z,15.08
2019-03-23T07:49:57.198Z,14.13
2019-03-23T07:52:32.222Z,13.38
2019-03-23T07:55:13.010Z,14.28
2019-03-23T07:57:46.626Z,12.70
2019-03-23T08:00:21.060Z,14.58
2019-03-23T08:02:54.486Z,14.07
2019-03-23T08:05:28.543Z,14.23
2019-03-23T08:08:01.870Z,13.50
2019-03-23T08:10:35.498Z,12.03
2019-03-23T08:13:08.821Z,11.95
2019-03-23T08:15:42.157Z,11.45
2019-03-23T08:18:15.857Z,12.18
2019-03-23T08:20:49.460Z,11.97
2019-03-23T08:23:22.906Z,10.23
2019-03-23T08:25:56.346Z,10.85
2019-03-23T08:28:32.342Z,10.75
2019-03-23T08:31:05.376Z,10.48
2019-03-23T08:33:39.034Z,10.20
2019-03-23T08:36:12.513Z,10.55
2019-03-23T08:38:46.057Z,9.13
2019-03-23T08:41:19.908Z,10.40
2019-03-23T08:43:53.400Z,10.32
2019-03-23T08:46:27.086Z,9.60
2019-03-23T08:49:01.207Z,10.38
2019-03-23T08:51:34.611Z,8.75
2019-03-23T08:54:08.149Z,9.03
2019-03-23T08:56:42.724Z,9.25
2019-03-23T08:59:16.317Z,8.60
2019-03-23T09:01:49.638Z,8.55
2019-03-23T09:04:23.326Z,8.95
2019-03-23T09:06:56.908Z,9.23
2019-03-23T09:09:30.823Z,11.80
2019-03-23T09:12:04.831Z,9.45
2019-03-23T09:14:38.806Z,9.45
2019-03-23T09:17:12.520Z,9.30
2019-03-23T09:19:46.654Z,7.95
2019-03-23T09:22:22.007Z,8.53
2019-03-23T09:24:57.169Z,8.63
2019-03-23T09:27:30.859Z,8.90
2019-03-23T09:30:07.873Z,8.80
2019-03-23T09:32:41.598Z,7.60
2019-03-23T09:35:17.144Z,9.15
2019-03-23T09:37:51.024Z,10.60
2019-03-23T09:40:26.188Z,9.90
2019-03-23T09:43:00.352Z,9.68
2019-03-23T09:45:34.210Z,10.03
2019-03-23T09:48:08.170Z,8.70
2019-03-23T09:50:41.633Z,8.90
2019-03-23T09:53:15.763Z,9.35
2019-03-23T09:55:49.513Z,9.28
2019-03-23T09:58:22.880Z,8.53
2019-03-23T10:00:56.399Z,9.53
2019-03-23T10:03:31.608Z,8.48
2019-03-23T10:06:05.997Z,10.60
2019-03-23T10:08:39.809Z,8.08
2019-03-23T10:11:13.510Z,8.95
2019-03-23T10:13:47.276Z,10.00
2019-03-23T10:16:20.879Z,10.40
2019-03-23T10:18:54.515Z,11.90
2019-03-23T10:21:27.984Z,15.40
2019-03-23T10:24:01.838Z,21.40
2019-03-23T10:26:35.183Z,29.77
2019-03-23T10:29:08.684Z,32.45
2019-03-23T10:31:42.010Z,37.58
2019-03-23T10:34:15.486Z,43.23
2019-03-23T10:36:49.182Z,45.17
2019-03-23T10:39:22.670Z,43.33
2019-03-23T10:41:56.487Z,41.60
2019-03-23T10:44:30.132Z,42.30
2019-03-23T10:47:03.999Z,39.35
2019-03-23T10:49:38.421Z,37.58
2019-03-23T10:52:13.764Z,35.50
2019-03-23T10:54:48.384Z,32.42
2019-03-23T10:57:22.647Z,33.78
2019-03-23T10:59:56.417Z,31.48
2019-03-23T11:02:30.255Z,28.67
2019-03-23T11:05:05.234Z,27.60
2019-03-23T11:07:39.293Z,25.25
2019-03-23T11:10:15.457Z,24.70
2019-03-23T11:12:49.430Z,21.87
2019-03-23T11:15:22.916Z,23.60
2019-03-23T11:17:56.529Z,20.72
2019-03-23T11:20:30.093Z,20.30
2019-03-23T11:23:03.538Z,18.05
2019-03-23T11:25:38.132Z,18.75
2019-03-23T11:28:13.257Z,18.15
2019-03-23T11:30:47.171Z,16.30
2019-03-23T11:33:22.442Z,17.65
2019-03-23T11:35:58.083Z,15.50
2019-03-23T11:38:31.521Z,15.83
2019-03-23T11:41:05.297Z,15.08
2019-03-23T11:43:38.832Z,14.83
2019-03-23T11:46:12.709Z,13.08
2019-03-23T11:48:46.299Z,14.30
2019-03-23T11:51:20.267Z,13.20
2019-03-23T11:53:53.809Z,12.90
2019-03-23T11:56:30.497Z,11.97
2019-03-23T11:59:04.357Z,12.82
2019-03-23T12:01:37.872Z,11.83
2019-03-23T12:04:11.372Z,11.68
2019-03-23T12:06:45.270Z,11.12
2019-03-23T12:09:19.035Z,10.10
2019-03-23T12:11:52.488Z,9.75
2019-03-23T12:14:26.038Z,8.60
2019-03-23T12:16:59.411Z,8.38
2019-03-23T12:19:33.105Z,7.08
2019-03-23T12:22:06.513Z,8.08
2019-03-23T12:24:39.931Z,6.97
2019-03-23T12:27:13.283Z,6.87
2019-03-23T12:29:47.155Z,6.65
2019-03-23T12:32:20.480Z,6.15
2019-03-23T12:34:54.062Z,5.28
2019-03-23T12:37:27.582Z,5.42
2019-03-23T12:40:01.060Z,4.58
2019-03-23T12:42:34.867Z,4.60
2019-03-23T12:45:09.018Z,3.85
2019-03-23T12:47:42.572Z,4.08
2019-03-23T12:50:15.967Z,3.83
2019-03-23T12:52:49.429Z,3.70
2019-03-23T12:55:23.306Z,3.17
2019-03-23T12:57:56.704Z,3.62
2019-03-23T13:00:30.160Z,3.42
2019-03-23T13:03:03.541Z,2.75
2019-03-23T13:05:36.888Z,2.90
2019-03-23T13:08:10.305Z,2.80
2019-03-23T13:10:44.401Z,2.45
2019-03-23T13:13:17.859Z,2.52
2019-03-23T13:15:51.885Z,2.40
2019-03-23T13:18:27.378Z,2.35
2019-03-23T13:21:03.102Z,1.52
2019-03-23T13:23:38.192Z,2.05
2019-03-23T13:26:12.022Z,1.87
2019-03-23T13:28:45.546Z,2.10
2019-03-23T13:31:19.268Z,1.75
2019-03-23T13:33:53.998Z,1.65
2019-03-23T13:36:28.977Z,2.05
2019-03-23T13:39:02.727Z,1.75
2019-03-23T13:41:47.121Z,1.95
2019-03-23T13:44:20.974Z,1.60
2019-03-23T13:46:54.300Z,1.65
2019-03-23T13:49:27.675Z,1.87
2019-03-23T13:52:02.791Z,1.52
2019-03-23T13:54:37.740Z,1.42
2019-03-23T13:57:11.219Z,1.75
2019-03-23T13:59:44.668Z,1.42
2019-03-23T14:02:18.669Z,1.50
2019-03-23T14:04:53.053Z,1.32
2019-03-23T14:07:26.862Z,1.25
2019-03-23T14:10:00.393Z,1.40
2019-03-23T14:12:34.006Z,1.40
2019-03-23T14:15:08.147Z,1.20
2019-03-23T14:17:42.114Z,1.22
2019-03-23T14:20:15.749Z,1.32
2019-03-23T14:22:49.409Z,1.40
2019-03-23T14:25:24.051Z,1.22
2019-03-23T14:27:57.536Z,1.17
2019-03-23T14:30:30.975Z,1.42
2019-03-23T14:33:04.375Z,0.95
2019-03-23T14:35:38.049Z,1.10
2019-03-23T14:38:11.608Z,1.20
2019-03-23T14:40:45.228Z,1.22
2019-03-23T14:43:18.977Z,1.00
2019-03-23T14:45:52.356Z,1.10
2019-03-23T14:48:25.726Z,1.20
2019-03-23T14:51:00.334Z,1.10
2019-03-23T14:53:35.128Z,1.50
2019-03-23T14:56:08.650Z,0.98
2019-03-23T14:58:43.080Z,0.98
2019-03-23T15:01:16.588Z,0.70
2019-03-23T15:03:50.107Z,1.40
2019-03-23T15:06:24.896Z,1.20
2019-03-23T15:08:58.223Z,1.12
2019-03-23T15:11:31.699Z,1.27
2019-03-23T15:14:05.364Z,1.42
2019-03-23T15:16:38.853Z,1.42
2019-03-23T15:19:12.234Z,1.42
2019-03-23T15:21:45.589Z,1.00
2019-03-23T15:24:18.940Z,1.15
2019-03-23T15:26:52.460Z,1.30
2019-03-23T15:29:26.141Z,1.32
2019-03-23T15:31:59.729Z,1.50
2019-03-23T15:34:33.355Z,1.00
2019-03-23T15:37:06.899Z,1.40
2019-03-23T15:39:40.224Z,1.17
2019-03-23T15:42:13.759Z,1.20
2019-03-23T15:44:47.294Z,1.72
2019-03-23T15:47:20.695Z,1.37
2019-03-23T15:49:54.306Z,1.60
2019-03-23T15:52:28.092Z,1.07
2019-03-23T15:55:03.333Z,1.20
2019-03-23T15:57:36.929Z,1.30
2019-03-23T16:00:11.703Z,1.80
2019-03-23T16:02:45.191Z,1.30
2019-03-23T16:05:18.724Z,1.30
2019-03-23T16:07:52.472Z,1.07
2019-03-23T16:10:27.475Z,1.42
2019-03-23T16:13:06.223Z,1.57
2019-03-23T16:15:41.944Z,0.93
2019-03-23T16:18:15.367Z,1.10
2019-03-23T16:20:48.925Z,1.20
2019-03-23T16:23:23.905Z,0.95
2019-03-23T16:25:57.212Z,1.45
2019-03-23T16:28:30.631Z,1.00
2019-03-23T16:31:04.119Z,1.05
2019-03-23T16:33:37.631Z,1.20
2019-03-23T16:36:11.007Z,1.30
2019-03-23T16:38:44.681Z,1.07
2019-03-23T16:41:18.202Z,1.10
2019-03-23T16:43:51.524Z,1.50
2019-03-23T16:46:24.917Z,1.42
2019-03-23T16:49:00.319Z,1.60
2019-03-23T16:51:33.738Z,0.95
2019-03-23T16:54:08.775Z,1.17
2019-03-23T16:56:42.166Z,1.47
2019-03-23T16:59:15.500Z,1.20
2019-03-23T17:01:49.250Z,1.35
2019-03-23T17:04:23.561Z,1.25
2019-03-23T17:06:58.131Z,1.20
2019-03-23T17:09:31.444Z,1.70
2019-03-23T17:12:04.999Z,1.40
2019-03-23T17:14:38.577Z,1.60
2019-03-23T17:17:11.897Z,1.40
2019-03-23T17:19:45.231Z,1.42
2019-03-23T17:22:18.927Z,1.55
2019-03-23T17:24:52.292Z,1.95
2019-03-23T17:27:25.491Z,1.55
2019-03-23T17:29:58.913Z,1.60
2019-03-23T17:32:32.565Z,1.47
2019-03-23T17:35:07.954Z,1.67
2019-03-23T17:37:41.159Z,1.52
2019-03-23T17:40:14.724Z,1.82
2019-03-23T17:42:48.094Z,1.82
2019-03-23T17:45:21.714Z,1.90
2019-03-23T17:47:55.319Z,1.82
2019-03-23T17:50:28.729Z,2.67
2019-03-23T17:53:02.161Z,2.55
2019-03-23T17:55:35.536Z,2.72
2019-03-23T17:58:09.184Z,3.10
2019-03-23T18:00:42.592Z,3.40
2019-03-23T18:03:15.900Z,4.12
2019-03-23T18:05:49.258Z,7.10
2019-03-23T18:08:22.515Z,8.63
2019-03-23T18:10:57.620Z,8.23
2019-03-23T18:13:30.928Z,7.95
2019-03-23T18:16:04.315Z,8.40
2019-03-23T18:18:38.065Z,7.80
2019-03-23T18:21:12.497Z,8.60
2019-03-23T18:23:45.882Z,7.92
2019-03-23T18:26:19.313Z,7.42
2019-03-23T18:28:52.719Z,6.85
2019-03-23T18:31:26.121Z,6.75
2019-03-23T18:33:59.575Z,6.70
2019-03-23T18:36:33.159Z,5.75
2019-03-23T18:39:06.562Z,5.85
2019-03-23T18:41:40.035Z,5.78
2019-03-23T18:44:16.407Z,5.30
2019-03-23T18:46:49.476Z,4.85
2019-03-23T18:49:22.803Z,4.65
2019-03-23T18:51:57.943Z,4.58
2019-03-23T18:54:31.355Z,3.90
2019-03-23T18:57:05.323Z,4.37
2019-03-23T18:59:38.752Z,4.45
2019-03-23T19:02:12.131Z,4.08
2019-03-23T19:04:45.705Z,3.52
2019-03-23T19:07:19.045Z,3.77
2019-03-23T19:09:52.443Z,4.03
2019-03-23T19:12:25.791Z,3.52
2019-03-23T19:14:59.291Z,3.17
2019-03-23T19:17:32.730Z,2.85
2019-03-23T19:20:07.146Z,2.62
2019-03-23T19:22:40.460Z,2.47
2019-03-23T19:25:18.418Z,2.92
2019-03-23T19:27:50.420Z,2.83
2019-03-23T19:30:23.824Z,2.98
2019-03-23T19:32:57.207Z,3.05
2019-03-23T19:35:30.584Z,2.58
2019-03-23T19:38:03.983Z,2.45
2019-03-23T19:40:37.400Z,2.92
2019-03-23T19:43:10.836Z,2.85
2019-03-23T19:45:44.252Z,2.85
2019-03-23T19:48:17.458Z,2.83
2019-03-23T19:50:50.823Z,2.60
2019-03-23T19:53:24.138Z,2.62
2019-03-23T19:55:58.579Z,2.80
2019-03-23T19:58:31.936Z,2.65
2019-03-23T20:01:05.335Z,2.65
2019-03-23T20:03:38.739Z,3.22
2019-03-23T20:06:12.263Z,3.00
2019-03-23T20:08:45.728Z,2.80
2019-03-23T20:11:19.503Z,2.58
2019-03-23T20:13:58.640Z,2.85
2019-03-23T20:16:28.447Z,2.95
2019-03-23T20:19:01.853Z,2.60
2019-03-23T20:21:35.186Z,2.72
2019-03-23T20:24:08.718Z,2.90
2019-03-23T20:26:42.056Z,2.22
2019-03-23T20:29:15.602Z,2.55
2019-03-23T20:31:49.188Z,3.00
2019-03-23T20:34:22.895Z,2.50
2019-03-23T20:36:56.681Z,3.08
2019-03-23T20:39:30.116Z,2.20
2019-03-23T20:42:03.920Z,2.72
2019-03-23T20:44:37.400Z,2.40
2019-03-23T20:47:11.013Z,2.92
2019-03-23T20:49:44.729Z,2.25
2019-03-23T20:52:18.385Z,2.95
2019-03-23T20:54:51.889Z,2.60
2019-03-23T20:57:36.650Z,2.67
2019-03-23T21:00:01.316Z,2.62
2019-03-23T21:02:37.726Z,2.08
2019-03-23T21:05:11.075Z,2.60
2019-03-23T21:07:44.407Z,3.10
2019-03-23T21:10:19.345Z,2.35
2019-03-23T21:12:52.650Z,2.47
2019-03-23T21:15:26.667Z,2.85
2019-03-23T21:17:59.800Z,2.75
2019-03-23T21:20:33.143Z,2.60
2019-03-23T21:23:06.490Z,2.67
2019-03-23T21:25:41.589Z,2.25
2019-03-23T21:28:15.676Z,2.08
2019-03-23T21:30:50.044Z,2.27
2019-03-23T21:33:23.450Z,2.22
2019-03-23T21:35:56.908Z,2.67
2019-03-23T21:38:30.455Z,2.30
2019-03-23T21:41:03.748Z,1.80
2019-03-23T21:43:37.194Z,1.98
2019-03-23T21:46:10.736Z,2.05
2019-03-23T21:48:44.073Z,2.33
2019-03-23T21:51:17.391Z,1.80
2019-03-23T21:53:50.761Z,2.00
2019-03-23T21:56:24.391Z,1.67
2019-03-23T21:58:57.796Z,1.52
2019-03-23T22:01:31.587Z,2.45
2019-03-23T22:04:05.009Z,2.50
2019-03-23T22:06:38.400Z,1.77
2019-03-23T22:09:11.792Z,2.20
2019-03-23T22:11:45.161Z,2.40
2019-03-23T22:14:18.531Z,2.20
2019-03-23T22:16:52.760Z,2.80
2019-03-23T22:19:26.171Z,2.70
2019-03-23T22:21:59.497Z,3.25
2019-03-23T22:24:32.876Z,3.30
2019-03-23T22:27:06.186Z,2.70
2019-03-23T22:29:39.713Z,2.77
2019-03-23T22:32:13.126Z,2.70
2019-03-23T22:34:46.500Z,2.72
2019-03-23T22:37:19.819Z,3.02
2019-03-23T22:39:54.212Z,2.98
2019-03-23T22:42:27.792Z,2.80
2019-03-23T22:45:01.487Z,2.83
2019-03-23T22:47:35.277Z,3.05
2019-03-23T22:50:09.240Z,2.80
2019-03-23T22:52:43.209Z,3.00
2019-03-23T22:55:16.807Z,2.50
2019-03-23T22:57:50.399Z,2.92
2019-03-23T23:00:24.244Z,3.17
2019-03-23T23:02:59.867Z,2.50
2019-03-23T23:05:33.266Z,2.65
2019-03-23T23:08:08.190Z,3.22
2019-03-23T23:10:43.227Z,5.00
2019-03-23T23:13:16.550Z,4.47
2019-03-23T23:15:49.931Z,5.03
2019-03-23T23:18:23.313Z,4.58
2019-03-23T23:20:56.648Z,3.65
2019-03-23T23:23:30.014Z,4.30
2019-03-23T23:26:03.375Z,5.17
2019-03-23T23:28:36.705Z,5.28
2019-03-23T23:31:11.619Z,4.78
2019-03-23T23:33:45.303Z,4.00
2019-03-23T23:36:18.718Z,3.45
2019-03-23T23:38:52.643Z,4.28
2019-03-23T23:41:26.756Z,5.30
2019-03-23T23:44:00.069Z,4.83
2019-03-23T23:46:33.459Z,4.42
2019-03-23T23:49:06.931Z,4.62
2019-03-23T23:51:49.808Z,4.33
2019-03-23T23:54:15.623Z,4.83
2019-03-23T23:56:49.057Z,4.08
2019-03-23T23:59:22.463Z,3.75
